Time;durP1;ratioP1;P1;durP2;ratioP2;P2;SDS_P1;SDS_P2;PMS_P1;PMS_P2;Temp;Humidity;BMP_temperature;BMP_pressure;BME280_temperature;BME280_humidity;BME280_pressure;Samples;Min_cycle;Max_cycle;Signal;HPM_P1;HPM_P2
2022/05/10 00:01:19;;;;;;;0.40;0.40;;;;;;;12.14;33.95;101530.23;103630;1274;110181;-66
2022/05/10 00:03:54;;;;;;;0.40;0.40;;;;;;;12.07;33.18;101531.05;103621;1275;99441;-65
2022/05/10 00:06:23;;;;;;;0.50;0.40;;;;;;;12.04;33.06;101527.16;103661;1274;108845;-66
2022/05/10 00:08:51;;;;;;;0.40;0.40;;;;;;;12.04;33.51;101524.31;103662;1275;96137;-66
2022/05/10 00:11:19;;;;;;;0.40;0.40;;;;;;;12.05;33.81;101523.42;103942;1274;95602;-65
2022/05/10 00:13:47;;;;;;;0.40;0.40;;;;;;;12.06;33.85;101524.84;103650;1275;109702;-65
2022/05/10 00:16:15;;;;;;;0.40;0.40;;;;;;;12.10;33.98;101524.59;103609;1274;98574;-66
2022/05/10 00:18:45;;;;;;;0.40;0.40;;;;;;;12.11;33.59;101520.14;103689;1275;108936;-65
2022/05/10 00:21:16;;;;;;;0.40;0.30;;;;;;;12.11;33.85;101517.11;103598;1275;95480;-64
2022/05/10 00:23:44;;;;;;;0.40;0.40;;;;;;;12.08;34.88;101516.80;103659;1275;96162;-65
2022/05/10 00:26:12;;;;;;;0.40;0.40;;;;;;;12.08;34.49;101512.17;103752;1275;109712;-64
2022/05/10 00:28:40;;;;;;;0.50;0.50;;;;;;;12.06;34.19;101510.95;103628;1275;98478;-65
2022/05/10 00:31:09;;;;;;;0.50;0.40;;;;;;;12.03;34.63;101510.43;103669;1277;106920;-63
2022/05/10 00:33:37;;;;;;;0.40;0.40;;;;;;;12.03;34.36;101505.99;103778;1274;95376;-65
2022/05/10 00:36:06;;;;;;;0.40;0.40;;;;;;;12.00;34.66;101500.71;103743;1278;95401;-66
2022/05/10 00:38:36;;;;;;;0.40;0.40;;;;;;;11.98;34.87;101500.02;103535;1278;109751;-64
2022/05/10 00:41:28;;;;;;;0.40;0.40;;;;;;;11.99;34.89;101500.52;103491;1275;99680;-65
2022/05/10 00:44:07;;;;;;;0.40;0.30;;;;;;;11.97;35.17;101500.73;103475;1277;108900;-66
2022/05/10 00:46:38;;;;;;;0.40;0.40;;;;;;;11.96;35.46;101498.80;103602;1277;95271;-65
2022/05/10 00:49:20;;;;;;;0.40;0.40;;;;;;;11.94;35.53;101495.08;103726;1275;95152;-65
2022/05/10 00:51:52;;;;;;;0.40;0.30;;;;;;;11.89;35.20;101492.83;104137;1274;109944;-65
2022/05/10 00:54:25;;;;;;;0.40;0.40;;;;;;;11.84;35.06;101492.52;103728;1274;99885;-65
2022/05/10 00:57:31;;;;;;;0.50;0.40;;;;;;;11.78;34.95;101491.90;103667;1274;107785;-64
2022/05/10 01:00:15;;;;;;;0.40;0.40;;;;;;;11.69;35.41;101488.29;103618;1274;95309;-65
2022/05/10 01:02:46;;;;;;;0.50;0.40;;;;;;;11.68;35.20;101484.92;103750;1274;95940;-66
2022/05/10 01:05:46;;;;;;;0.40;0.40;;;;;;;11.65;35.75;101487.98;103610;1274;109679;-64
2022/05/10 01:08:26;;;;;;;0.40;0.40;;;;;;;11.66;35.71;101485.13;103678;1275;99901;-65
2022/05/10 01:11:04;;;;;;;0.50;0.40;;;;;;;11.61;35.45;101481.65;103689;1274;107936;-64
2022/05/10 01:13:40;;;;;;;0.50;0.40;;;;;;;11.56;35.42;101477.62;103698;1274;98135;-66
2022/05/10 01:16:11;;;;;;;0.40;0.40;;;;;;;11.52;35.08;101477.30;103857;1274;95850;-65
2022/05/10 01:18:40;;;;;;;0.50;0.40;;;;;;;11.52;35.82;101475.35;103972;1274;109380;-65
2022/05/10 01:21:34;;;;;;;0.50;0.40;;;;;;;11.45;35.45;101472.23;103564;1274;97432;-65
2022/05/10 01:24:41;;;;;;;0.50;0.40;;;;;;;11.46;35.60;101471.52;103616;1274;109367;-66
2022/05/10 01:27:47;;;;;;;0.40;0.40;;;;;;;11.46;36.33;101473.29;103588;1274;95746;-62
2022/05/10 01:30:28;;;;;;;0.50;0.40;;;;;;;11.44;36.24;101472.25;103605;1278;95758;-66
2022/05/10 01:36:09;;;;;;;0.50;0.40;;;;;;;11.40;36.66;101466.78;103615;1275;99503;-64
2022/05/10 01:39:02;;;;;;;0.50;0.40;;;;;;;11.34;36.31;101464.55;103590;1275;108376;-64
2022/05/10 01:42:12;;;;;;;0.50;0.50;;;;;;;11.31;36.25;101461.92;103689;1274;95743;-65
2022/05/10 01:44:56;;;;;;;0.50;0.40;;;;;;;11.28;36.52;101455.21;103385;1281;95256;-66
2022/05/10 01:47:38;;;;;;;0.40;0.40;;;;;;;11.23;36.99;101452.77;103640;1274;109917;-65
2022/05/10 01:50:14;;;;;;;0.50;0.50;;;;;;;11.17;36.82;101450.00;103696;1274;99346;-65
2022/05/10 01:52:49;;;;;;;0.50;0.50;;;;;;;11.15;37.36;101453.58;103751;1277;108706;-65
2022/05/10 01:55:36;;;;;;;0.50;0.50;;;;;;;11.11;37.30;101452.91;103649;1274;95755;-65
2022/05/10 01:58:09;;;;;;;0.50;0.40;;;;;;;11.07;37.36;101451.73;103525;1275;95232;-65
2022/05/10 02:00:39;;;;;;;0.50;0.50;;;;;;;11.00;37.66;101451.79;103823;1274;110272;-66
2022/05/10 02:03:27;;;;;;;0.40;0.40;;;;;;;10.96;37.94;101446.67;103766;1275;99758;-64
2022/05/10 02:06:22;;;;;;;0.50;0.50;;;;;;;10.94;37.66;101447.06;103716;1275;108831;-64
2022/05/10 02:09:17;;;;;;;0.50;0.50;;;;;;;10.89;37.82;101445.67;103779;1274;95529;-64
2022/05/10 02:12:25;;;;;;;0.50;0.50;;;;;;;10.82;38.31;101443.27;103700;1274;95752;-68
2022/05/10 02:15:08;;;;;;;0.50;0.50;;;;;;;10.71;38.15;101441.79;103647;1274;109359;-65
2022/05/10 02:17:56;;;;;;;0.50;0.40;;;;;;;10.65;37.92;101443.80;103704;1275;99411;-65
2022/05/10 02:20:35;;;;;;;0.50;0.50;;;;;;;10.65;37.84;101442.91;103761;1275;108857;-64
2022/05/10 02:23:23;;;;;;;0.50;0.50;;;;;;;10.66;38.10;101443.26;103614;1274;95518;-65
2022/05/10 02:26:00;;;;;;;0.50;0.50;;;;;;;10.61;38.39;101442.08;103825;1274;95678;-65
2022/05/10 02:28:45;;;;;;;0.50;0.40;;;;;;;10.58;38.84;101437.65;104190;1274;107926;-65
2022/05/10 02:31:26;;;;;;;0.50;0.50;;;;;;;10.58;38.60;101436.25;103874;1274;99756;-65
2022/05/10 02:33:55;;;;;;;0.50;0.50;;;;;;;10.52;38.61;101435.40;103759;1275;109316;-66
2022/05/10 02:36:23;;;;;;;0.50;0.40;;;;;;;10.44;39.00;101431.75;103662;1275;95755;-65
2022/05/10 02:38:51;;;;;;;0.50;0.50;;;;;;;10.45;39.02;101431.55;103669;1274;96134;-65
2022/05/10 02:41:22;;;;;;;0.50;0.50;;;;;;;10.43;39.16;101431.22;103641;1274;109937;-66
2022/05/10 02:43:54;;;;;;;0.60;0.60;;;;;;;10.37;39.20;101435.73;103688;1274;99346;-66
2022/05/10 02:46:24;;;;;;;0.50;0.50;;;;;;;10.29;39.85;101436.98;104003;1274;108799;-65
2022/05/10 02:48:52;;;;;;;0.50;0.50;;;;;;;10.30;39.30;101437.17;103661;1274;95294;-65
2022/05/10 02:51:20;;;;;;;0.50;0.50;;;;;;;10.28;39.90;101436.30;103764;1274;95230;-66
2022/05/10 02:53:49;;;;;;;0.50;0.50;;;;;;;10.22;39.72;101437.05;103686;1274;109718;-66
2022/05/10 02:56:19;;;;;;;0.50;0.50;;;;;;;10.14;40.11;101435.16;103852;1274;99337;-63
2022/05/10 02:58:50;;;;;;;0.50;0.50;;;;;;;10.09;40.01;101433.26;103609;1275;108033;-64
2022/05/10 03:01:24;;;;;;;0.60;0.60;;;;;;;10.07;40.38;101435.23;103790;1274;96114;-67
2022/05/10 03:03:52;;;;;;;0.50;0.50;;;;;;;10.06;40.64;101432.74;103716;1274;95501;-65
2022/05/10 03:06:25;;;;;;;0.50;0.50;;;;;;;10.08;40.09;101432.36;104455;1274;110801;-65
2022/05/10 03:08:56;;;;;;;0.60;0.60;;;;;;;10.01;40.18;101433.31;103657;1274;99752;-64
2022/05/10 03:11:25;;;;;;;0.60;0.60;;;;;;;9.98;40.47;101431.38;103860;1274;109497;-64
2022/05/10 03:13:53;;;;;;;0.60;0.60;;;;;;;9.94;40.29;101428.73;103784;1274;95534;-64
2022/05/10 03:16:25;;;;;;;0.50;0.50;;;;;;;9.87;40.18;101424.73;103774;1274;95387;-64
2022/05/10 03:18:54;;;;;;;0.50;0.50;;;;;;;9.84;40.10;101424.55;103748;1274;109758;-66
2022/05/10 03:21:23;;;;;;;0.50;0.50;;;;;;;9.81;39.96;101420.86;103773;1274;98236;-64
2022/05/10 03:23:52;;;;;;;0.50;0.50;;;;;;;9.81;40.78;101421.58;103578;1274;108784;-63
2022/05/10 03:26:25;;;;;;;0.50;0.50;;;;;;;9.78;39.96;101426.02;103606;1275;95453;-65
2022/05/10 03:28:55;;;;;;;0.60;0.60;;;;;;;9.72;39.60;101422.86;103740;1274;95663;-67
2022/05/10 03:31:25;;;;;;;0.50;0.50;;;;;;;9.72;40.59;101425.16;103671;1274;109714;-65
2022/05/10 03:36:41;;;;;;;0.60;0.60;;;;;;;9.72;40.13;101418.42;103579;1274;108820;-64
2022/05/10 03:39:09;;;;;;;0.50;0.50;;;;;;;9.70;40.39;101416.48;103779;1274;96007;-65
2022/05/10 03:41:38;;;;;;;0.60;0.60;;;;;;;9.77;40.59;101413.26;103700;1274;96259;-65
2022/05/10 03:44:06;;;;;;;0.60;0.60;;;;;;;9.81;40.94;101410.73;103584;1274;110053;-65
2022/05/10 03:46:35;;;;;;;0.60;0.60;;;;;;;9.87;40.77;101410.34;103602;1275;99342;-66
2022/05/10 03:49:03;;;;;;;0.60;0.60;;;;;;;9.93;40.11;101411.55;103673;1274;108770;-66
2022/05/10 03:51:31;;;;;;;0.50;0.50;;;;;;;9.91;39.41;101409.97;103581;1275;96681;-66
2022/05/10 03:53:59;;;;;;;0.50;0.50;;;;;;;9.94;40.86;101404.09;103769;1274;95222;-65
2022/05/10 03:56:27;;;;;;;0.50;0.50;;;;;;;9.92;39.93;101406.41;103510;1274;186760;-65
2022/05/10 03:58:57;;;;;;;0.60;0.60;;;;;;;9.90;39.11;101403.94;103850;1274;99528;-64
2022/05/10 04:01:28;;;;;;;0.50;0.50;;;;;;;9.93;39.11;101403.91;103610;1274;108865;-66
2022/05/10 04:03:56;;;;;;;0.50;0.50;;;;;;;9.95;38.77;101403.55;103835;1274;97168;-65
2022/05/10 04:06:29;;;;;;;0.50;0.50;;;;;;;9.95;39.04;101403.89;103668;1274;95146;-65
2022/05/10 04:08:58;;;;;;;0.50;0.50;;;;;;;9.96;38.66;101399.10;103778;1274;110489;-66
2022/05/10 04:11:29;;;;;;;0.50;0.50;;;;;;;10.00;38.83;101399.61;103614;1274;99519;-65
2022/05/10 04:13:58;;;;;;;0.50;0.50;;;;;;;10.12;39.52;101394.20;103705;1274;109129;-64
2022/05/10 04:16:26;;;;;;;0.60;0.60;;;;;;;10.18;39.01;101394.48;103632;1274;95791;-65
2022/05/10 04:18:54;;;;;;;0.60;0.60;;;;;;;10.25;39.17;101396.73;103648;1274;95650;-65
2022/05/10 04:21:22;;;;;;;0.50;0.50;;;;;;;10.31;39.38;101397.94;103740;1274;110233;-63
2022/05/10 04:23:50;;;;;;;0.50;0.50;;;;;;;10.34;38.67;101400.56;103659;1274;98881;-66
2022/05/10 04:26:19;;;;;;;0.50;0.50;;;;;;;10.37;38.39;101398.98;103563;1277;108794;-67
2022/05/10 04:28:47;;;;;;;0.50;0.50;;;;;;;10.40;38.05;101402.85;103677;1275;96038;-66
2022/05/10 04:31:15;;;;;;;0.50;0.50;;;;;;;10.45;38.41;101404.21;103671;1274;95199;-64
2022/05/10 04:33:43;;;;;;;0.50;0.50;;;;;;;10.54;38.33;101405.91;104250;1274;109811;-66
2022/05/10 04:36:11;;;;;;;0.50;0.50;;;;;;;10.60;37.76;101408.15;103621;1274;99803;-66
2022/05/10 04:38:46;;;;;;;0.50;0.50;;;;;;;10.61;37.83;101403.18;103867;1274;108868;-66
2022/05/10 04:41:27;;;;;;;0.50;0.50;;;;;;;10.69;37.88;101402.02;103667;1274;95848;-66
2022/05/10 04:43:58;;;;;;;0.50;0.40;;;;;;;10.70;37.05;101401.11;103829;1274;95954;-65
2022/05/10 04:46:27;;;;;;;0.40;0.40;;;;;;;10.68;36.77;101408.98;103617;1274;109946;-64
2022/05/10 04:48:56;;;;;;;0.50;0.40;;;;;;;10.66;37.03;101407.39;103772;1274;99457;-65
2022/05/10 04:51:24;;;;;;;0.50;0.40;;;;;;;10.71;36.93;101409.81;104268;1274;108796;-65
2022/05/10 04:53:54;;;;;;;0.50;0.40;;;;;;;10.77;36.73;101412.61;103774;1274;95287;-66
2022/05/10 04:56:22;;;;;;;0.50;0.50;;;;;;;10.86;37.12;101413.74;103589;1274;95115;-65
2022/05/10 04:58:54;;;;;;;0.50;0.40;;;;;;;10.95;37.01;101412.04;103643;1274;109733;-65
2022/05/10 05:01:28;;;;;;;0.50;0.40;;;;;;;11.05;36.95;101405.70;103943;1274;100034;-66
2022/05/10 05:03:56;;;;;;;0.40;0.40;;;;;;;11.17;36.90;101404.32;103665;1274;107910;-64
2022/05/10 05:06:24;;;;;;;0.50;0.40;;;;;;;11.27;37.25;101404.38;103718;1274;95659;-67
2022/05/10 05:08:53;;;;;;;0.40;0.40;;;;;;;11.40;37.19;101405.61;104033;1274;95135;-63
2022/05/10 05:11:21;;;;;;;0.40;0.30;;;;;;;11.59;37.40;101406.60;103606;1274;109735;-66
2022/05/10 05:13:49;;;;;;;0.50;0.40;;;;;;;11.68;36.92;101402.55;103629;1275;99853;-65
2022/05/10 05:16:17;;;;;;;0.40;0.40;;;;;;;11.79;37.46;101404.54;103475;1275;107856;-65
2022/05/10 05:18:46;;;;;;;0.40;0.40;;;;;;;11.93;36.87;101406.98;103650;1274;95832;-65
2022/05/10 05:21:15;;;;;;;0.40;0.40;;;;;;;12.02;36.16;101410.61;103643;1274;95139;-64
2022/05/10 05:23:43;;;;;;;0.40;0.40;;;;;;;12.09;36.09;101409.79;103580;1274;109835;-66
2022/05/10 05:26:12;;;;;;;0.40;0.40;;;;;;;12.17;35.89;101411.80;103555;1274;97540;-66
2022/05/10 05:28:40;;;;;;;0.50;0.40;;;;;;;12.27;35.62;101413.59;103632;1274;108783;-66
2022/05/10 05:31:08;;;;;;;0.40;0.40;;;;;;;12.29;35.11;101413.02;103622;1274;95236;-68
2022/05/10 05:33:39;;;;;;;0.40;0.40;;;;;;;12.37;35.46;101416.25;103687;1274;95198;-66
2022/05/10 05:36:07;;;;;;;0.40;0.30;;;;;;;12.46;34.92;101420.91;103832;1274;109729;-67
2022/05/10 05:38:35;;;;;;;0.40;0.30;;;;;;;12.51;34.58;101420.10;103709;1274;99361;-65
2022/05/10 05:41:04;;;;;;;0.40;0.30;;;;;;;12.62;34.80;101422.58;103858;1274;108024;-66
2022/05/10 05:43:32;;;;;;;0.40;0.30;;;;;;;12.80;34.47;101421.36;103672;1274;95626;-68
2022/05/10 05:46:02;;;;;;;0.40;0.30;;;;;;;13.03;34.24;101424.13;103773;1274;95291;-66
2022/05/10 05:48:30;;;;;;;0.40;0.30;;;;;;;13.20;33.57;101423.24;103808;1274;109544;-67
2022/05/10 05:50:58;;;;;;;0.40;0.30;;;;;;;13.37;33.11;101424.88;103611;1274;99492;-65
2022/05/10 05:53:29;;;;;;;0.40;0.30;;;;;;;13.52;32.72;101421.35;103531;1274;108532;-66
2022/05/10 05:56:08;;;;;;;0.40;0.30;;;;;;;13.53;32.73;101420.96;103547;1274;95415;-66
2022/05/10 05:58:38;;;;;;;0.40;0.30;;;;;;;13.70;33.12;101420.23;104562;1274;95701;-67
2022/05/10 06:01:15;;;;;;;0.40;0.30;;;;;;;13.81;32.82;101414.98;103777;1274;109780;-65
2022/05/10 06:03:44;;;;;;;0.40;0.20;;;;;;;13.80;33.21;101411.42;103742;1276;99544;-67
2022/05/10 06:06:12;;;;;;;0.40;0.20;;;;;;;13.83;33.41;101414.05;103665;1274;108783;-67
2022/05/10 06:08:44;;;;;;;0.40;0.20;;;;;;;13.92;33.43;101417.05;103552;1274;96552;-65
2022/05/10 06:11:12;;;;;;;0.40;0.20;;;;;;;14.06;33.10;101413.85;103659;1274;95541;-67
2022/05/10 06:13:40;;;;;;;0.40;0.20;;;;;;;14.22;32.32;101406.50;103756;1276;109841;-67
2022/05/10 06:16:08;;;;;;;0.40;0.30;;;;;;;14.35;31.88;101401.14;103658;1274;100048;-68
2022/05/10 06:18:36;;;;;;;0.40;0.20;;;;;;;14.58;31.97;101400.40;103640;1274;109066;-66
2022/05/10 06:21:05;;;;;;;0.40;0.30;;;;;;;14.91;30.83;101400.76;103655;1274;95505;-67
2022/05/10 06:23:33;;;;;;;0.40;0.20;;;;;;;15.23;30.54;101397.85;103861;1275;95140;-64
2022/05/10 06:26:01;;;;;;;0.40;0.20;;;;;;;15.51;29.55;101396.84;103711;1274;109754;-67
2022/05/10 06:28:29;;;;;;;0.40;0.20;;;;;;;16.06;28.38;101391.73;103791;1274;99079;-67
2022/05/10 06:30:57;;;;;;;0.40;0.20;;;;;;;16.73;27.02;101384.58;103703;1274;108877;-64
2022/05/10 06:33:25;;;;;;;0.40;0.20;;;;;;;17.37;26.44;101379.85;103684;1274;96712;-68
2022/05/10 06:35:54;;;;;;;0.40;0.10;;;;;;;18.02;25.75;101379.61;103765;1274;95263;-65
2022/05/10 06:38:29;;;;;;;0.40;0.10;;;;;;;18.49;24.88;101377.27;103709;1274;109808;-66
2022/05/10 06:41:04;;;;;;;0.40;0.10;;;;;;;18.76;24.76;101374.48;103714;1276;99515;-68
2022/05/10 06:43:38;;;;;;;0.40;0.10;;;;;;;18.97;24.64;101369.77;103857;1274;109723;-66
2022/05/10 06:46:16;;;;;;;0.40;0.10;;;;;;;19.15;23.45;101371.83;103628;1274;95710;-65
2022/05/10 06:48:47;;;;;;;0.40;0.10;;;;;;;18.87;23.54;101370.77;103784;1274;96144;-67
2022/05/10 06:51:17;;;;;;;0.40;0.10;;;;;;;18.57;24.49;101368.13;103625;1276;109733;-67
2022/05/10 06:53:45;;;;;;;0.40;0.10;;;;;;;18.30;24.64;101364.42;103672;1274;99304;-67
2022/05/10 06:56:13;;;;;;;0.40;0.10;;;;;;;18.07;25.33;101363.62;103717;1274;108891;-67
2022/05/10 06:58:42;;;;;;;0.40;0.10;;;;;;;17.83;25.02;101368.54;104284;1274;96531;-66
2022/05/10 07:01:14;;;;;;;0.40;0.10;;;;;;;17.60;25.34;101370.90;103693;1274;96461;-66
2022/05/10 07:03:45;;;;;;;0.40;0.10;;;;;;;17.47;25.38;101375.17;103550;1274;110807;-66
2022/05/10 07:06:16;;;;;;;0.40;0.10;;;;;;;17.32;25.39;101376.86;104238;1274;99676;-64
2022/05/10 07:08:44;;;;;;;0.40;0.10;;;;;;;17.12;25.39;101373.30;103739;1274;109135;-64
2022/05/10 07:11:12;;;;;;;0.40;0.10;;;;;;;17.08;26.01;101371.30;104300;1274;96802;-63
2022/05/10 07:13:40;;;;;;;0.40;0.10;;;;;;;17.06;25.81;101367.78;103956;1274;95209;-65
2022/05/10 07:16:08;;;;;;;0.40;0.10;;;;;;;17.03;25.47;101365.02;103430;1274;109836;-65
2022/05/10 07:18:36;;;;;;;0.40;0.10;;;;;;;17.05;26.08;101371.40;103489;1274;99452;-65
2022/05/10 07:21:04;;;;;;;0.40;0.10;;;;;;;17.02;25.09;101367.38;103503;1274;108771;-66
2022/05/10 07:23:33;;;;;;;0.40;0.10;;;;;;;17.11;25.63;101366.35;103445;1274;95865;-65
2022/05/10 07:26:05;;;;;;;0.40;0.10;;;;;;;17.20;25.19;101362.20;103413;1274;96131;-65
2022/05/10 07:28:33;;;;;;;0.40;0.20;;;;;;;17.22;25.07;101362.85;103600;1274;108827;-65
2022/05/10 07:31:01;;;;;;;0.40;0.10;;;;;;;17.16;24.86;101356.83;103649;1274;99358;-65
2022/05/10 07:33:29;;;;;;;0.40;0.10;;;;;;;17.13;25.28;101357.11;103413;1274;108614;-65
2022/05/10 07:38:44;;;;;;;0.40;0.10;;;;;;;17.34;25.78;101353.96;103501;1274;95658;-65
2022/05/10 07:41:12;;;;;;;0.40;0.10;;;;;;;17.35;24.83;101346.22;103525;1274;109689;-64
2022/05/10 07:43:40;;;;;;;0.40;0.10;;;;;;;17.40;25.62;101344.04;103546;1274;98511;-66
2022/05/10 07:46:08;;;;;;;0.40;0.10;;;;;;;17.52;25.87;101343.92;103461;1274;108766;-65
2022/05/10 07:48:36;;;;;;;0.40;0.10;;;;;;;17.58;25.55;101346.21;103787;1274;95234;-65
2022/05/10 07:51:05;;;;;;;0.40;0.10;;;;;;;17.64;24.86;101347.40;103546;1274;95669;-65
2022/05/10 07:53:33;;;;;;;0.40;0.10;;;;;;;17.75;25.65;101345.50;103475;1274;108574;-65
2022/05/10 07:56:02;;;;;;;0.40;0.10;;;;;;;17.89;25.04;101345.84;103511;1274;99523;-63
2022/05/10 07:58:31;;;;;;;0.40;0.10;;;;;;;17.93;24.98;101340.83;103677;1274;108841;-65
2022/05/10 08:00:59;;;;;;;0.40;0.10;;;;;;;18.01;24.61;101341.39;103605;1274;95317;-64
2022/05/10 08:03:28;;;;;;;0.40;0.10;;;;;;;18.10;25.52;101336.88;103554;1274;95385;-65
2022/05/10 08:05:56;;;;;;;0.40;0.10;;;;;;;18.33;25.53;101336.45;103918;1274;138921;-65
2022/05/10 08:08:25;;;;;;;0.40;0.10;;;;;;;18.54;25.24;101336.77;103511;1277;99368;-65
2022/05/10 08:11:03;;;;;;;0.40;0.10;;;;;;;18.50;24.36;101340.20;103518;1277;109115;-65
2022/05/10 08:13:34;;;;;;;0.40;0.10;;;;;;;18.52;24.37;101340.45;103376;1277;138877;-64
2022/05/10 08:16:02;;;;;;;0.40;0.10;;;;;;;18.55;24.08;101347.68;103465;1277;95235;-66
2022/05/10 08:18:30;;;;;;;0.40;0.10;;;;;;;18.62;23.55;101346.16;103286;1277;138314;-64
2022/05/10 08:20:59;;;;;;;0.40;0.10;;;;;;;18.64;23.45;101342.45;103440;1276;99509;-64
2022/05/10 08:23:29;;;;;;;0.40;0.10;;;;;;;18.69;23.46;101342.23;103269;1277;138906;-64
2022/05/10 08:25:59;;;;;;;0.40;0.10;;;;;;;18.72;23.38;101336.86;103619;1277;95592;-64
2022/05/10 08:28:29;;;;;;;0.40;0.10;;;;;;;18.75;22.29;101335.11;103646;1277;95237;-65
2022/05/10 08:30:58;;;;;;;0.40;0.10;;;;;;;18.83;22.93;101329.20;103529;1277;138233;-66
2022/05/10 08:33:30;;;;;;;0.40;0.10;;;;;;;18.90;22.46;101326.73;103690;1277;99465;-65
2022/05/10 08:35:59;;;;;;;0.40;0.10;;;;;;;18.94;22.28;101321.31;103411;1277;138334;-66
2022/05/10 08:38:29;;;;;;;0.40;0.10;;;;;;;19.04;22.43;101319.23;104075;1277;96140;-65
2022/05/10 08:41:06;;;;;;;0.40;0.10;;;;;;;19.06;22.29;101318.78;103577;1277;95504;-64
2022/05/10 08:43:51;;;;;;;0.40;0.10;;;;;;;19.18;22.93;101314.46;103325;1277;138069;-66
2022/05/10 08:46:25;;;;;;;0.40;0.10;;;;;;;19.58;23.07;101309.45;103407;1277;99466;-66
2022/05/10 08:49:00;;;;;;;0.40;0.10;;;;;;;19.88;22.93;101308.16;103697;1276;138232;-66
2022/05/10 08:51:31;;;;;;;0.40;0.10;;;;;;;20.21;22.48;101314.37;103591;1277;95653;-67
2022/05/10 08:53:59;;;;;;;0.40;0.10;;;;;;;20.55;21.28;101309.02;103515;1275;138920;-66
2022/05/10 08:56:32;;;;;;;0.40;0.10;;;;;;;20.40;19.26;101306.22;103874;1277;109704;-66
2022/05/10 08:59:06;;;;;;;0.40;0.10;;;;;;;20.26;19.77;101307.86;103584;1277;99358;-66
2022/05/10 09:02:00;;;;;;;0.40;0.10;;;;;;;20.48;19.66;101305.98;103370;1277;138060;-66
2022/05/10 09:05:12;;;;;;;0.40;0.10;;;;;;;20.91;19.77;101311.08;103878;1277;95247;-66
2022/05/10 09:07:44;;;;;;;0.40;0.10;;;;;;;21.14;19.47;101304.36;103088;1280;138036;-65
2022/05/10 09:10:25;;;;;;;0.40;0.10;;;;;;;21.33;19.58;101300.44;103488;1277;109885;-66
2022/05/10 09:12:58;;;;;;;0.40;0.10;;;;;;;21.81;20.04;101292.08;103560;1277;138527;-65
2022/05/10 09:15:27;;;;;;;0.40;0.10;;;;;;;22.08;18.96;101291.05;104103;1275;109801;-66
2022/05/10 09:17:56;;;;;;;0.40;0.10;;;;;;;22.21;18.86;101290.41;103752;1276;138559;-63
2022/05/10 09:20:24;;;;;;;0.40;0.10;;;;;;;23.20;17.99;101283.30;103592;1277;95276;-63
2022/05/10 09:22:59;;;;;;;0.40;0.10;;;;;;;24.39;16.95;101278.02;103587;1277;109881;-65
2022/05/10 09:25:31;;;;;;;0.40;0.00;;;;;;;25.64;16.61;101270.27;103443;1277;138300;-65
2022/05/10 09:28:07;;;;;;;0.40;0.00;;;;;;;26.77;15.45;101270.39;103861;1276;107828;-65
2022/05/10 09:30:35;;;;;;;0.40;0.00;;;;;;;27.28;13.97;101264.98;103371;1277;138545;-63
2022/05/10 09:36:10;;;;;;;0.40;0.00;;;;;;;28.51;14.43;101250.13;103401;1277;138113;-66
2022/05/10 09:39:14;;;;;;;0.40;0.30;;;;;;;30.09;13.66;101241.88;103439;1277;99651;-65
2022/05/10 09:41:47;;;;;;;0.40;0.00;;;;;;;30.52;11.89;101243.69;103716;1275;138233;-66
2022/05/10 09:44:20;;;;;;;0.40;0.00;;;;;;;30.57;12.23;101244.06;103839;1276;95290;-66
2022/05/10 09:46:48;;;;;;;0.40;0.00;;;;;;;30.99;11.70;101244.48;103533;1277;95618;-66
2022/05/10 09:49:37;;;;;;;0.40;0.00;;;;;;;31.57;12.10;101239.58;103412;1277;138532;-65
2022/05/10 09:52:16;;;;;;;0.40;0.00;;;;;;;32.60;11.26;101235.06;103580;1274;99487;-65
2022/05/10 09:54:45;;;;;;;0.40;0.00;;;;;;;32.71;10.43;101231.80;103403;1276;138069;-66
2022/05/10 09:57:34;;;;;;;0.40;0.00;;;;;;;32.57;9.78;101232.54;103532;1277;96144;-65
2022/05/10 10:00:14;;;;;;;0.40;0.00;;;;;;;32.35;10.48;101230.89;103446;1277;138873;-65
2022/05/10 10:02:43;;;;;;;0.40;0.00;;;;;;;32.74;9.77;101233.94;103949;1277;109853;-65
2022/05/10 10:05:25;;;;;;;0.40;0.00;;;;;;;33.31;9.71;101232.89;103660;1275;99555;-65
2022/05/10 10:07:56;;;;;;;0.40;0.00;;;;;;;34.56;9.97;101220.28;103897;1277;108863;-66
2022/05/10 10:10:35;;;;;;;0.40;0.00;;;;;;;35.50;9.27;101221.42;103439;1277;96200;-65
2022/05/10 10:13:32;;;;;;;0.40;0.00;;;;;;;35.66;8.67;101215.84;103598;1277;138577;-67
2022/05/10 10:16:01;;;;;;;0.40;0.00;;;;;;;35.44;8.62;101213.20;103507;1276;109708;-66
2022/05/10 10:18:44;;;;;;;0.40;0.00;;;;;;;35.29;8.43;101210.35;103713;1277;138249;-65
2022/05/10 10:21:17;;;;;;;0.40;0.00;;;;;;;35.28;8.99;101202.77;103653;1277;108780;-65
2022/05/10 10:24:00;;;;;;;0.40;0.00;;;;;;;35.84;8.58;101203.77;103598;1277;138320;-66
2022/05/10 10:26:32;;;;;;;0.40;0.00;;;;;;;35.79;8.32;101202.60;103558;1277;95217;-65
2022/05/10 10:29:11;;;;;;;0.40;0.00;;;;;;;35.46;8.71;101196.95;103667;1275;109805;-65
2022/05/10 10:31:44;;;;;;;0.40;0.00;;;;;;;35.31;8.90;101193.89;103606;1277;138020;-66
2022/05/10 10:34:28;;;;;;;0.40;0.00;;;;;;;35.35;8.57;101193.59;103387;1277;109105;-67
2022/05/10 10:37:32;;;;;;;0.40;0.00;;;;;;;35.45;9.05;101180.45;103504;1277;138098;-66
2022/05/10 10:40:09;;;;;;;0.40;0.00;;;;;;;36.22;8.99;101177.58;103011;1277;95219;-66
2022/05/10 10:42:54;;;;;;;0.40;0.00;;;;;;;36.20;8.05;101172.39;103655;1277;138337;-66
2022/05/10 10:45:34;;;;;;;0.40;0.00;;;;;;;35.22;8.32;101168.02;103918;1277;99417;-67
2022/05/10 10:48:26;;;;;;;0.40;0.00;;;;;;;35.29;8.91;101163.52;103482;1275;137916;-66
2022/05/10 10:50:55;;;;;;;0.40;0.00;;;;;;;35.71;8.99;101162.08;103727;1277;95652;-66
2022/05/10 10:53:25;;;;;;;0.40;0.00;;;;;;;35.58;8.52;101148.58;103515;1277;138350;-66
2022/05/10 10:55:59;;;;;;;0.40;0.00;;;;;;;34.31;8.63;101154.58;103553;1277;109781;-66
2022/05/10 10:58:55;;;;;;;0.40;0.00;;;;;;;32.67;9.78;101152.59;103476;1277;100093;-66
2022/05/10 11:01:47;;;;;;;0.40;0.00;;;;;;;31.44;11.37;101147.40;103875;1277;138340;-66
2022/05/10 11:04:47;;;;;;;0.40;0.00;;;;;;;30.62;11.08;101146.27;103457;1276;95659;-65
2022/05/10 11:07:48;;;;;;;0.40;0.00;;;;;;;29.61;11.96;101138.20;103045;1277;138085;-64
2022/05/10 11:10:50;;;;;;;0.40;0.00;;;;;;;28.98;12.69;101140.04;103547;1277;109645;-65
2022/05/10 11:14:09;;;;;;;0.40;0.00;;;;;;;27.50;12.67;101137.09;103368;1276;139004;-66
2022/05/10 11:16:48;;;;;;;0.40;0.00;;;;;;;26.13;13.78;101133.45;103432;1277;108811;-66
2022/05/10 11:19:19;;;;;;;0.40;0.00;;;;;;;25.50;14.54;101129.10;103324;1277;138574;-66
2022/05/10 11:22:06;;;;;;;0.40;0.00;;;;;;;24.90;14.51;101121.64;103528;1275;95596;-66
2022/05/10 11:24:55;;;;;;;0.40;0.00;;;;;;;24.54;15.17;101119.05;103411;1276;138648;-66
2022/05/10 11:28:04;;;;;;;0.40;0.00;;;;;;;24.49;15.97;101116.52;103977;1275;98837;-68
2022/05/10 11:30:44;;;;;;;0.40;0.00;;;;;;;24.16;15.16;101111.98;103222;1276;138605;-65
2022/05/10 11:33:31;;;;;;;0.40;0.00;;;;;;;23.95;15.85;101107.14;103341;1277;96185;-64
2022/05/10 11:36:10;;;;;;;0.40;0.00;;;;;;;23.70;15.98;101098.55;103538;1277;138453;-66
2022/05/10 11:38:53;;;;;;;0.40;0.00;;;;;;;23.37;15.88;101093.05;103539;1277;109742;-66
2022/05/10 11:41:36;;;;;;;0.40;0.00;;;;;;;22.95;16.36;101093.69;103476;1277;138406;-67
2022/05/10 11:44:13;;;;;;;0.40;0.00;;;;;;;22.81;16.25;101085.91;103558;1277;109103;-64
2022/05/10 11:46:54;;;;;;;0.40;0.00;;;;;;;22.62;16.78;101079.96;103512;1276;95626;-66
2022/05/10 11:49:38;;;;;;;0.40;0.00;;;;;;;22.63;17.31;101075.74;103661;1277;138211;-65
2022/05/10 11:52:33;;;;;;;0.40;0.00;;;;;;;22.50;16.73;101062.09;103623;1277;109865;-65
2022/05/10 11:55:31;;;;;;;0.40;0.00;;;;;;;22.53;17.09;101055.59;103472;1277;138857;-66
2022/05/10 11:58:03;;;;;;;0.40;0.00;;;;;;;22.45;16.78;101051.38;103733;1277;109646;-66
2022/05/10 12:00:31;;;;;;;0.40;0.00;;;;;;;22.38;16.85;101048.95;103485;1278;141411;-66